createdAt,value
2018-09-15T00:01:16.970Z,6.07
2018-09-15T00:03:44.157Z,5.90
2018-09-15T00:06:11.309Z,6.30
2018-09-15T00:08:38.486Z,5.67
2018-09-15T00:11:05.667Z,5.80
2018-09-15T00:13:32.864Z,6.10
2018-09-15T00:16:00.048Z,6.00
2018-09-15T00:18:27.215Z,6.67
2018-09-15T00:20:54.388Z,5.90
2018-09-15T00:23:21.578Z,6.00
2018-09-15T00:25:48.812Z,5.50
2018-09-15T00:28:16.099Z,5.87
2018-09-15T00:30:43.247Z,5.30
2018-09-15T00:33:10.507Z,5.50
2018-09-15T00:35:37.754Z,4.70
2018-09-15T00:38:04.996Z,5.70
2018-09-15T00:40:32.160Z,5.20
2018-09-15T00:42:59.361Z,5.50
2018-09-15T00:45:26.502Z,4.97
2018-09-15T00:47:53.684Z,5.50
2018-09-15T00:50:21.056Z,5.40
2018-09-15T00:52:48.210Z,5.80
2018-09-15T00:55:15.388Z,5.87
2018-09-15T00:57:42.563Z,5.93
2018-09-15T01:00:09.890Z,6.07
2018-09-15T01:02:37.323Z,5.50
2018-09-15T01:05:04.824Z,7.10
2018-09-15T01:07:31.994Z,5.50
2018-09-15T01:09:59.146Z,6.33
2018-09-15T01:12:26.330Z,5.53
2018-09-15T01:14:53.508Z,6.00
2018-09-15T01:17:20.870Z,5.80
2018-09-15T01:19:48.095Z,5.30
2018-09-15T01:22:15.259Z,5.80
2018-09-15T01:24:42.672Z,5.93
2018-09-15T01:27:09.850Z,5.90
2018-09-15T01:29:37.021Z,6.53
2018-09-15T01:32:04.214Z,5.60
2018-09-15T01:34:31.366Z,6.13
2018-09-15T01:36:58.512Z,5.63
2018-09-15T01:39:25.694Z,6.40
2018-09-15T01:41:52.884Z,5.97
2018-09-15T01:44:20.085Z,6.23
2018-09-15T01:46:47.254Z,5.80
2018-09-15T01:49:14.417Z,5.50
2018-09-15T01:51:41.591Z,5.80
2018-09-15T01:54:08.753Z,6.33
2018-09-15T01:56:35.943Z,5.87
2018-09-15T01:59:03.117Z,5.67
2018-09-15T02:01:30.295Z,5.63
2018-09-15T02:03:57.494Z,5.20
2018-09-15T02:06:24.662Z,5.40
2018-09-15T02:08:51.815Z,5.50
2018-09-15T02:11:18.995Z,4.93
2018-09-15T02:13:46.151Z,5.07
2018-09-15T02:16:13.351Z,4.90
2018-09-15T02:18:40.552Z,4.80
2018-09-15T02:21:07.722Z,5.00
2018-09-15T02:23:34.882Z,5.80
2018-09-15T02:26:02.055Z,6.03
2018-09-15T02:28:29.234Z,6.00
2018-09-15T02:30:56.392Z,5.37
2018-09-15T02:33:23.567Z,5.00
2018-09-15T02:35:50.742Z,5.40
2018-09-15T02:38:17.959Z,5.53
2018-09-15T02:40:45.111Z,6.03
2018-09-15T02:43:12.300Z,5.53
2018-09-15T02:45:39.472Z,5.33
2018-09-15T02:48:06.654Z,5.83
2018-09-15T02:50:33.798Z,5.37
2018-09-15T02:53:01.312Z,5.67
2018-09-15T02:55:28.479Z,5.80
2018-09-15T02:57:55.651Z,5.60
2018-09-15T03:00:22.832Z,5.63
2018-09-15T03:02:50.052Z,4.87
2018-09-15T03:05:17.207Z,5.80
2018-09-15T03:07:44.382Z,5.70
2018-09-15T03:10:11.537Z,5.73
2018-09-15T03:12:38.703Z,5.13
2018-09-15T03:15:05.939Z,5.73
2018-09-15T03:17:33.112Z,4.97
2018-09-15T03:20:00.313Z,5.00
2018-09-15T03:22:27.482Z,5.03
2018-09-15T03:24:54.687Z,4.90
2018-09-15T03:27:21.842Z,4.80
2018-09-15T03:29:49.037Z,5.20
2018-09-15T03:32:16.270Z,5.20
2018-09-15T03:34:43.450Z,5.20
2018-09-15T03:37:10.626Z,5.57
2018-09-15T03:39:37.835Z,5.67
2018-09-15T03:42:05.005Z,6.10
2018-09-15T03:44:32.207Z,5.13
2018-09-15T03:46:59.406Z,5.13
2018-09-15T03:49:26.620Z,4.83
2018-09-15T03:51:53.874Z,5.37
2018-09-15T03:54:21.746Z,4.90
2018-09-15T03:56:50.513Z,4.93
2018-09-15T03:59:18.131Z,5.23
2018-09-15T04:01:45.674Z,5.57
2018-09-15T04:04:12.887Z,5.10
2018-09-15T04:06:40.043Z,5.27
2018-09-15T04:09:08.379Z,5.40
2018-09-15T04:11:35.571Z,4.80
2018-09-15T04:14:02.751Z,4.90
2018-09-15T04:16:29.961Z,4.90
2018-09-15T04:18:57.122Z,4.97
2018-09-15T04:21:24.373Z,5.13
2018-09-15T04:23:51.531Z,5.07
2018-09-15T04:26:18.705Z,5.40
2018-09-15T04:28:45.855Z,5.17
2018-09-15T04:31:13.034Z,5.10
2018-09-15T04:33:40.274Z,5.23
2018-09-15T04:36:07.473Z,5.03
2018-09-15T04:38:34.663Z,4.80
2018-09-15T04:41:02.468Z,5.10
2018-09-15T04:43:29.636Z,4.60
2018-09-15T04:45:56.850Z,4.67
2018-09-15T04:48:24.039Z,4.47
2018-09-15T04:50:51.220Z,4.53
2018-09-15T04:53:18.391Z,5.47
2018-09-15T04:55:45.572Z,5.10
2018-09-15T04:58:12.747Z,4.90
2018-09-15T05:00:40.013Z,4.73
2018-09-15T05:03:07.228Z,4.50
2018-09-15T05:05:34.385Z,5.30
2018-09-15T05:08:02.432Z,4.67
2018-09-15T05:10:29.627Z,5.73
2018-09-15T05:12:56.862Z,4.53
2018-09-15T05:15:23.999Z,5.40
2018-09-15T05:17:51.158Z,4.80
2018-09-15T05:20:18.341Z,5.00
2018-09-15T05:22:45.506Z,4.77
2018-09-15T05:25:12.687Z,5.40
2018-09-15T05:27:39.870Z,4.50
2018-09-15T05:30:07.268Z,4.87
2018-09-15T05:32:34.477Z,4.50
2018-09-15T05:35:02.654Z,4.00
2018-09-15T05:37:29.831Z,4.70
2018-09-15T05:39:57.040Z,5.30
2018-09-15T05:42:24.187Z,4.57
2018-09-15T05:44:51.365Z,4.67
2018-09-15T05:47:18.520Z,4.80
2018-09-15T05:49:45.780Z,4.50
2018-09-15T05:52:12.878Z,4.50
2018-09-15T05:54:40.023Z,4.70
2018-09-15T05:57:07.211Z,5.20
2018-09-15T05:59:34.377Z,4.57
2018-09-15T06:02:01.747Z,4.70
2018-09-15T06:04:28.939Z,4.83
2018-09-15T06:06:56.201Z,4.80
2018-09-15T06:09:23.347Z,4.73
2018-09-15T06:11:50.603Z,4.67
2018-09-15T06:14:17.811Z,4.50
2018-09-15T06:16:45.019Z,4.90
2018-09-15T06:19:12.244Z,4.10
2018-09-15T06:21:39.443Z,4.50
2018-09-15T06:24:06.606Z,4.23
2018-09-15T06:26:34.002Z,5.20
2018-09-15T06:29:01.323Z,4.40
2018-09-15T06:31:28.539Z,4.30
2018-09-15T06:33:55.697Z,5.00
2018-09-15T06:36:22.924Z,5.10
2018-09-15T06:38:50.070Z,5.90
2018-09-15T06:41:17.246Z,5.60
2018-09-15T06:43:44.414Z,6.70
2018-09-15T06:46:11.595Z,6.30
2018-09-15T06:48:38.791Z,6.57
2018-09-15T06:51:05.990Z,6.77
2018-09-15T06:53:33.159Z,6.90
2018-09-15T06:56:00.346Z,5.83
2018-09-15T06:58:27.618Z,5.97
2018-09-15T07:00:54.823Z,6.90
2018-09-15T07:03:21.995Z,6.33
2018-09-15T07:05:49.241Z,6.60
2018-09-15T07:08:16.393Z,6.47
2018-09-15T07:10:43.563Z,6.80
2018-09-15T07:15:45.027Z,6.50
2018-09-15T07:18:12.227Z,6.33
2018-09-15T07:20:39.400Z,6.07
2018-09-15T07:23:06.597Z,6.90
2018-09-15T07:25:33.744Z,6.90
2018-09-15T07:28:01.274Z,6.40
2018-09-15T07:30:28.440Z,6.40
2018-09-15T07:32:55.848Z,6.43
2018-09-15T07:35:23.023Z,7.00
2018-09-15T07:37:50.174Z,6.10
2018-09-15T07:40:17.382Z,5.60
2018-09-15T07:42:44.559Z,6.27
2018-09-15T07:45:11.715Z,6.07
2018-09-15T07:47:38.958Z,5.70
2018-09-15T07:50:06.122Z,6.50
2018-09-15T07:52:33.295Z,5.80
2018-09-15T07:55:00.476Z,7.50
2018-09-15T07:57:27.708Z,6.90
2018-09-15T07:59:54.846Z,7.87
2018-09-15T08:02:23.198Z,6.20
2018-09-15T08:04:50.978Z,6.30
2018-09-15T08:07:18.135Z,6.23
2018-09-15T08:09:45.863Z,6.50
2018-09-15T08:12:13.181Z,6.10
2018-09-15T08:14:40.357Z,5.90
2018-09-15T08:17:07.551Z,5.80
2018-09-15T08:19:34.738Z,5.10
2018-09-15T08:22:02.140Z,3.63
2018-09-15T08:24:29.402Z,3.63
2018-09-15T08:26:56.556Z,3.97
2018-09-15T08:29:23.734Z,2.43
2018-09-15T08:31:51.061Z,2.50
2018-09-15T08:34:18.235Z,2.57
2018-09-15T08:36:45.418Z,2.80
2018-09-15T08:39:12.567Z,3.83
2018-09-15T08:41:39.956Z,2.00
2018-09-15T08:44:07.130Z,1.57
2018-09-15T08:46:34.574Z,2.07
2018-09-15T08:49:02.313Z,1.60
2018-09-15T08:51:29.483Z,1.90
2018-09-15T08:53:56.675Z,1.60
2018-09-15T08:56:23.860Z,2.60
2018-09-15T08:58:51.142Z,1.80
2018-09-15T09:01:18.470Z,1.57
2018-09-15T09:03:45.705Z,1.67
2018-09-15T09:06:12.827Z,1.77
2018-09-15T09:08:40.039Z,1.33
2018-09-15T09:11:07.226Z,1.30
2018-09-15T09:13:34.387Z,1.37
2018-09-15T09:16:02.198Z,1.20
2018-09-15T09:18:29.396Z,1.10
2018-09-15T09:20:56.551Z,1.40
2018-09-15T09:23:23.728Z,1.20
2018-09-15T09:25:50.979Z,1.43
2018-09-15T09:28:18.084Z,1.40
2018-09-15T09:30:45.227Z,1.20
2018-09-15T09:33:12.498Z,1.20
2018-09-15T09:35:39.667Z,1.30
2018-09-15T09:38:07.039Z,1.27
2018-09-15T09:40:34.246Z,1.30
2018-09-15T09:43:01.415Z,1.10
2018-09-15T09:45:28.591Z,1.13
2018-09-15T09:47:55.794Z,1.20
2018-09-15T09:50:22.942Z,0.87
2018-09-15T09:52:51.136Z,1.10
2018-09-15T09:55:19.877Z,1.03
2018-09-15T09:57:47.102Z,1.00
2018-09-15T10:00:19.859Z,0.80
2018-09-15T10:02:47.054Z,1.10
2018-09-15T10:05:14.216Z,0.97
2018-09-15T10:07:41.423Z,1.10
2018-09-15T10:10:08.586Z,1.20
2018-09-15T10:12:35.741Z,0.93
2018-09-15T10:15:02.939Z,1.20
2018-09-15T10:17:30.154Z,1.23
2018-09-15T10:19:57.351Z,0.90
2018-09-15T10:22:24.506Z,1.03
2018-09-15T10:24:51.665Z,1.03
2018-09-15T10:27:18.855Z,1.10
2018-09-15T10:29:46.002Z,0.90
2018-09-15T10:32:13.284Z,1.30
2018-09-15T10:34:40.367Z,0.80
2018-09-15T10:37:07.535Z,1.23
2018-09-15T10:39:34.715Z,1.40
2018-09-15T10:42:01.869Z,1.33
2018-09-15T10:44:29.083Z,1.10
2018-09-15T10:46:56.556Z,1.30
2018-09-15T10:49:23.727Z,1.13
2018-09-15T10:51:50.886Z,1.13
2018-09-15T10:54:18.074Z,1.40
2018-09-15T10:56:45.275Z,1.10
2018-09-15T10:59:12.414Z,1.07
2018-09-15T11:01:39.575Z,1.10
2018-09-15T11:04:06.775Z,0.97
2018-09-15T11:06:33.960Z,0.90
2018-09-15T11:09:01.736Z,1.03
2018-09-15T11:11:28.903Z,1.03
2018-09-15T11:13:56.527Z,0.90
2018-09-15T11:16:23.705Z,1.40
2018-09-15T11:18:50.890Z,1.10
2018-09-15T11:21:18.043Z,1.20
2018-09-15T11:23:45.226Z,1.33
2018-09-15T11:26:12.374Z,1.40
2018-09-15T11:28:39.588Z,1.30
2018-09-15T11:31:06.710Z,1.30
2018-09-15T11:33:33.893Z,1.43
2018-09-15T11:36:02.858Z,1.50
2018-09-15T11:38:30.040Z,1.47
2018-09-15T11:40:57.186Z,1.17
2018-09-15T11:43:24.369Z,1.20
2018-09-15T11:45:51.617Z,1.80
2018-09-15T11:48:18.797Z,1.30
2018-09-15T11:50:45.955Z,1.00
2018-09-15T11:53:13.154Z,1.10
2018-09-15T11:55:40.311Z,1.00
2018-09-15T11:58:07.495Z,1.27
2018-09-15T12:00:37.020Z,1.47
2018-09-15T12:03:04.177Z,0.97
2018-09-15T12:05:31.346Z,0.90
2018-09-15T12:07:58.560Z,1.37
2018-09-15T12:10:25.702Z,1.50
2018-09-15T12:12:52.985Z,1.10
2018-09-15T12:15:20.141Z,1.10
2018-09-15T12:17:47.443Z,1.10
2018-09-15T12:20:14.610Z,1.07
2018-09-15T12:22:41.772Z,1.07
2018-09-15T12:25:08.987Z,1.50
2018-09-15T12:27:36.242Z,1.50
2018-09-15T12:30:04.567Z,1.00
2018-09-15T12:32:31.726Z,1.00
2018-09-15T12:34:58.888Z,1.30
2018-09-15T12:37:26.101Z,1.47
2018-09-15T12:39:53.593Z,1.00
2018-09-15T12:42:20.773Z,0.97
2018-09-15T12:44:47.948Z,0.90
2018-09-15T12:47:15.125Z,1.00
2018-09-15T12:49:42.290Z,1.30
2018-09-15T12:52:09.499Z,0.80
2018-09-15T12:54:36.642Z,1.10
2018-09-15T12:57:03.816Z,1.00
2018-09-15T12:59:31.111Z,1.10
2018-09-15T13:01:58.271Z,0.90
2018-09-15T13:04:25.427Z,1.10
2018-09-15T13:06:52.622Z,1.27
2018-09-15T13:09:19.790Z,1.20
2018-09-15T13:11:46.949Z,1.50
2018-09-15T13:14:14.126Z,1.10
2018-09-15T13:16:41.320Z,1.33
2018-09-15T13:19:08.487Z,1.20
2018-09-15T13:21:35.650Z,1.03
2018-09-15T13:24:02.838Z,1.20
2018-09-15T13:26:30.031Z,1.10
2018-09-15T13:28:57.511Z,1.30
2018-09-15T13:31:24.747Z,1.10
2018-09-15T13:33:52.195Z,1.40
2018-09-15T13:36:19.385Z,1.10
2018-09-15T13:38:46.630Z,1.10
2018-09-15T13:41:13.826Z,1.83
2018-09-15T13:43:41.019Z,1.40
2018-09-15T13:46:08.202Z,1.00
2018-09-15T13:48:35.612Z,1.27
2018-09-15T13:51:03.256Z,1.33
2018-09-15T13:53:30.932Z,1.77
2018-09-15T13:55:58.280Z,1.37
2018-09-15T13:58:25.494Z,1.00
2018-09-15T14:00:52.875Z,1.50
2018-09-15T14:03:20.149Z,1.70
2018-09-15T14:05:47.310Z,1.20
2018-09-15T14:08:14.476Z,1.43
2018-09-15T14:10:41.804Z,1.30
2018-09-15T14:13:08.870Z,1.53
2018-09-15T14:15:36.020Z,1.30
2018-09-15T14:18:03.194Z,1.13
2018-09-15T14:20:30.407Z,1.60
2018-09-15T14:22:57.559Z,1.00
2018-09-15T14:25:24.740Z,1.33
2018-09-15T14:27:51.956Z,1.30
2018-09-15T14:30:19.127Z,1.40
2018-09-15T14:32:46.323Z,1.30
2018-09-15T14:35:13.479Z,1.67
2018-09-15T14:37:40.633Z,1.00
2018-09-15T14:40:07.815Z,1.30
2018-09-15T14:42:35.024Z,1.37
2018-09-15T14:45:04.868Z,1.50
2018-09-15T14:47:32.161Z,1.23
2018-09-15T14:49:59.440Z,1.40
2018-09-15T14:52:26.602Z,1.20
2018-09-15T14:54:53.769Z,1.40
2018-09-15T14:57:20.955Z,1.30
2018-09-15T14:59:48.135Z,1.40
2018-09-15T15:02:15.326Z,1.37
2018-09-15T15:04:42.618Z,1.80
2018-09-15T15:07:09.770Z,1.30
2018-09-15T15:09:37.225Z,1.30
2018-09-15T15:12:04.426Z,1.33
2018-09-15T15:14:31.609Z,1.20
2018-09-15T15:16:58.794Z,1.80
2018-09-15T15:19:25.994Z,1.93
2018-09-15T15:21:53.348Z,1.17
2018-09-15T15:24:20.563Z,1.40
2018-09-15T15:26:47.742Z,1.40
2018-09-15T15:29:15.005Z,1.53
2018-09-15T15:31:42.215Z,1.30
2018-09-15T15:34:09.397Z,1.40
2018-09-15T15:36:36.551Z,1.30
2018-09-15T15:39:04.804Z,1.10
2018-09-15T15:41:31.983Z,1.20
2018-09-15T15:43:59.171Z,1.40
2018-09-15T15:46:26.322Z,1.77
2018-09-15T15:48:53.518Z,1.27
2018-09-15T15:51:20.695Z,1.40
2018-09-15T15:53:47.888Z,1.40
2018-09-15T15:56:15.061Z,1.60
2018-09-15T15:58:42.395Z,1.37
2018-09-15T16:01:09.408Z,1.43
2018-09-15T16:06:10.135Z,1.53
2018-09-15T16:08:37.331Z,1.57
2018-09-15T16:11:04.770Z,1.47
2018-09-15T16:13:31.890Z,1.50
2018-09-15T16:15:59.059Z,1.60
2018-09-15T16:18:26.239Z,1.40
2018-09-15T16:20:53.433Z,1.40
2018-09-15T16:23:20.606Z,1.53
2018-09-15T16:25:47.838Z,1.50
2018-09-15T16:28:14.996Z,1.40
2018-09-15T16:30:42.211Z,1.40
2018-09-15T16:33:09.363Z,1.93
2018-09-15T16:35:36.546Z,1.50
2018-09-15T16:38:03.703Z,1.40
2018-09-15T16:40:31.452Z,1.50
2018-09-15T16:42:58.610Z,1.37
2018-09-15T16:45:25.786Z,1.50
2018-09-15T16:47:52.982Z,1.50
2018-09-15T16:50:20.131Z,1.53
2018-09-15T16:52:47.312Z,1.80
2018-09-15T16:55:14.504Z,1.30
2018-09-15T16:57:41.660Z,1.80
2018-09-15T17:00:08.871Z,1.43
2018-09-15T17:02:36.057Z,1.80
2018-09-15T17:05:03.260Z,1.67
2018-09-15T17:07:30.450Z,1.63
2018-09-15T17:09:57.658Z,1.30
2018-09-15T17:12:24.784Z,1.67
2018-09-15T17:14:51.959Z,1.43
2018-09-15T17:17:19.125Z,1.50
2018-09-15T17:19:46.353Z,1.40
2018-09-15T17:22:13.503Z,1.53
2018-09-15T17:24:40.691Z,1.37
2018-09-15T17:27:07.847Z,1.67
2018-09-15T17:29:35.009Z,1.43
2018-09-15T17:32:02.646Z,2.00
2018-09-15T17:34:29.823Z,1.60
2018-09-15T17:36:57.055Z,1.67
2018-09-15T17:39:24.199Z,1.70
2018-09-15T17:41:52.232Z,1.63
2018-09-15T17:44:19.395Z,1.50
2018-09-15T17:46:46.572Z,1.90
2018-09-15T17:49:15.356Z,1.63
2018-09-15T17:51:42.578Z,2.07
2018-09-15T17:54:09.739Z,2.10
2018-09-15T17:56:36.918Z,1.90
2018-09-15T17:59:04.078Z,1.93
2018-09-15T18:01:31.283Z,1.80
2018-09-15T18:03:58.519Z,1.80
2018-09-15T18:06:25.696Z,2.13
2018-09-15T18:08:53.311Z,2.10
2018-09-15T18:11:20.672Z,1.83
2018-09-15T18:13:47.899Z,2.03
2018-09-15T18:16:15.096Z,1.83
2018-09-15T18:18:42.275Z,1.80
2018-09-15T18:21:09.471Z,1.80
2018-09-15T18:23:36.635Z,1.60
2018-09-15T18:26:03.840Z,2.20
2018-09-15T18:28:31.024Z,1.97
2018-09-15T18:30:58.238Z,1.90
2018-09-15T18:33:25.407Z,2.50
2018-09-15T18:35:52.596Z,1.80
2018-09-15T18:38:19.756Z,2.40
2018-09-15T18:40:46.909Z,1.70
2018-09-15T18:43:14.087Z,1.90
2018-09-15T18:45:41.266Z,2.07
2018-09-15T18:48:08.430Z,2.20
2018-09-15T18:50:35.668Z,2.10
2018-09-15T18:53:02.825Z,2.10
2018-09-15T18:55:30.007Z,2.07
2018-09-15T18:57:57.204Z,2.10
2018-09-15T19:00:24.481Z,1.87
2018-09-15T19:02:51.551Z,2.77
2018-09-15T19:05:18.743Z,1.70
2018-09-15T19:07:45.923Z,2.20
2018-09-15T19:10:13.180Z,2.10
2018-09-15T19:12:40.317Z,1.90
2018-09-15T19:15:07.509Z,2.30
2018-09-15T19:17:34.655Z,2.00
2018-09-15T19:20:01.870Z,2.30
2018-09-15T19:22:29.068Z,1.90
2018-09-15T19:24:56.246Z,2.30
2018-09-15T19:27:23.427Z,2.30
2018-09-15T19:29:50.578Z,2.53
2018-09-15T19:32:17.746Z,2.40
2018-09-15T19:34:44.921Z,2.40
2018-09-15T19:37:12.097Z,2.27
2018-09-15T19:39:39.273Z,2.20
2018-09-15T19:42:06.806Z,2.93
2018-09-15T19:44:33.981Z,2.60
2018-09-15T19:47:01.510Z,2.13
2018-09-15T19:49:28.686Z,2.20
2018-09-15T19:51:55.840Z,2.50
2018-09-15T19:54:23.004Z,2.20
2018-09-15T19:56:50.231Z,2.13
2018-09-15T19:59:17.463Z,2.23
2018-09-15T20:01:44.589Z,2.27
2018-09-15T20:04:11.747Z,2.30
2018-09-15T20:06:38.926Z,2.20
2018-09-15T20:09:06.963Z,2.40
2018-09-15T20:11:34.111Z,2.37
2018-09-15T20:14:01.341Z,2.37
2018-09-15T20:16:28.006Z,3.13
2018-09-15T20:18:54.676Z,2.20
2018-09-15T20:21:21.328Z,2.33
2018-09-15T20:23:48.514Z,2.80
2018-09-15T20:26:15.659Z,2.40
2018-09-15T20:28:42.831Z,2.50
2018-09-15T20:31:09.988Z,2.37
2018-09-15T20:33:37.163Z,2.00
2018-09-15T20:36:04.312Z,2.80
2018-09-15T20:38:31.487Z,2.97
2018-09-15T20:40:58.672Z,2.57
2018-09-15T20:43:25.817Z,2.07
2018-09-15T20:45:52.992Z,2.40
2018-09-15T20:48:20.150Z,2.80
2018-09-15T20:50:47.322Z,2.80
2018-09-15T20:53:14.494Z,2.70
2018-09-15T20:55:41.878Z,2.73
2018-09-15T20:58:09.054Z,2.33
2018-09-15T21:00:36.315Z,2.60
2018-09-15T21:03:03.539Z,2.57
2018-09-15T21:05:30.719Z,2.80
2018-09-15T21:07:57.941Z,2.83
2018-09-15T21:10:25.087Z,2.20
2018-09-15T21:12:52.284Z,2.77
2018-09-15T21:15:19.432Z,2.90
2018-09-15T21:17:46.579Z,2.10
2018-09-15T21:20:13.973Z,2.70
2018-09-15T21:22:41.122Z,2.70
2018-09-15T21:25:08.297Z,3.30
2018-09-15T21:27:35.476Z,2.80
2018-09-15T21:30:02.878Z,2.33
2018-09-15T21:32:30.162Z,3.00
2018-09-15T21:34:57.326Z,3.20
2018-09-15T21:37:24.492Z,2.40
2018-09-15T21:39:51.704Z,2.57
2018-09-15T21:42:18.936Z,2.40
2018-09-15T21:44:46.127Z,2.77
2018-09-15T21:47:13.312Z,2.40
2018-09-15T21:49:40.457Z,2.77
2018-09-15T21:52:07.631Z,2.57
2018-09-15T21:54:34.802Z,2.40
2018-09-15T21:57:02.103Z,2.53
2018-09-15T21:59:29.260Z,2.50
2018-09-15T22:01:56.453Z,2.70
2018-09-15T22:04:23.898Z,3.50
2018-09-15T22:06:52.468Z,2.33
2018-09-15T22:09:19.667Z,2.40
2018-09-15T22:11:46.798Z,2.40
2018-09-15T22:14:13.968Z,2.10
2018-09-15T22:16:41.602Z,2.73
2018-09-15T22:19:08.878Z,2.00
2018-09-15T22:21:36.141Z,2.40
2018-09-15T22:24:03.584Z,2.30
2018-09-15T22:26:30.780Z,2.43
2018-09-15T22:28:57.962Z,2.43
2018-09-15T22:31:25.126Z,2.33
2018-09-15T22:33:52.294Z,2.10
2018-09-15T22:36:19.461Z,2.30
2018-09-15T22:38:46.631Z,2.27
2018-09-15T22:41:13.832Z,2.63
2018-09-15T22:43:40.987Z,2.90
2018-09-15T22:46:08.222Z,2.20
2018-09-15T22:48:35.397Z,2.43
2018-09-15T22:51:02.892Z,2.50
2018-09-15T22:53:30.088Z,2.50
2018-09-15T22:55:57.227Z,2.40
2018-09-15T22:58:24.392Z,2.50
2018-09-15T23:00:51.563Z,2.50
2018-09-15T23:03:18.740Z,2.07
2018-09-15T23:05:45.886Z,2.57
2018-09-15T23:08:13.089Z,2.40
2018-09-15T23:10:40.231Z,2.20
2018-09-15T23:13:07.391Z,2.23
2018-09-15T23:15:34.589Z,2.23
2018-09-15T23:18:02.183Z,2.30
2018-09-15T23:20:29.360Z,2.20
2018-09-15T23:22:56.499Z,2.47
2018-09-15T23:25:23.687Z,2.30
2018-09-15T23:27:50.875Z,2.30
2018-09-15T23:30:18.020Z,2.13
2018-09-15T23:32:45.196Z,2.23
2018-09-15T23:35:12.963Z,2.43
2018-09-15T23:37:40.121Z,2.13
2018-09-15T23:40:07.664Z,2.63
2018-09-15T23:42:34.825Z,2.03
2018-09-15T23:45:02.711Z,2.10
2018-09-15T23:47:29.887Z,2.30
2018-09-15T23:49:57.041Z,2.37
2018-09-15T23:52:24.212Z,2.27
2018-09-15T23:54:51.435Z,2.03
2018-09-15T23:57:18.591Z,2.27
2018-09-15T23:59:45.738Z,2.13
